sensor_id;sensor_type;location;lat;lon;timestamp;pressure;altitude;pressure_sealevel;temperature;humidity
51053;BME280;37093;37.716;-122.060;2023-08-08T00:01:13;99650.20;;;32.14;23.09
51053;BME280;37093;37.716;-122.060;2023-08-08T00:03:41;99649.79;;;31.96;23.11
51053;BME280;37093;37.716;-122.060;2023-08-08T00:06:09;99644.97;;;31.38;23.81
51053;BME280;37093;37.716;-122.060;2023-08-08T00:08:37;99647.57;;;31.43;23.82
51053;BME280;37093;37.716;-122.060;2023-08-08T00:11:05;99647.67;;;31.51;23.95
51053;BME280;37093;37.716;-122.060;2023-08-08T00:13:33;99645.22;;;31.59;24.09
51053;BME280;37093;37.716;-122.060;2023-08-08T00:16:02;99646.20;;;31.10;24.69
51053;BME280;37093;37.716;-122.060;2023-08-08T00:18:30;99641.27;;;30.98;24.16
51053;BME280;37093;37.716;-122.060;2023-08-08T00:21:00;99643.78;;;31.03;24.51
51053;BME280;37093;37.716;-122.060;2023-08-08T00:23:28;99642.25;;;31.17;24.66
51053;BME280;37093;37.716;-122.060;2023-08-08T00:25:56;99647.48;;;30.53;24.95
51053;BME280;37093;37.716;-122.060;2023-08-08T00:28:24;99645.98;;;30.75;24.92
51053;BME280;37093;37.716;-122.060;2023-08-08T00:30:53;99650.70;;;30.51;25.48
51053;BME280;37093;37.716;-122.060;2023-08-08T00:33:22;99646.49;;;30.22;26.50
51053;BME280;37093;37.716;-122.060;2023-08-08T00:35:50;99645.85;;;29.52;26.73
51053;BME280;37093;37.716;-122.060;2023-08-08T00:38:18;99647.41;;;30.56;26.48
51053;BME280;37093;37.716;-122.060;2023-08-08T00:40:46;99648.79;;;30.05;26.60
51053;BME280;37093;37.716;-122.060;2023-08-08T00:43:15;99649.98;;;29.75;26.86
51053;BME280;37093;37.716;-122.060;2023-08-08T00:45:44;99656.06;;;29.90;26.64
51053;BME280;37093;37.716;-122.060;2023-08-08T00:48:13;99655.21;;;30.46;26.08
51053;BME280;37093;37.716;-122.060;2023-08-08T00:50:43;99653.45;;;30.53;26.08
51053;BME280;37093;37.716;-122.060;2023-08-08T00:53:12;99654.32;;;29.82;26.77
51053;BME280;37093;37.716;-122.060;2023-08-08T00:55:40;99651.79;;;30.41;25.90
51053;BME280;37093;37.716;-122.060;2023-08-08T00:58:08;99651.50;;;29.98;26.90
51053;BME280;37093;37.716;-122.060;2023-08-08T01:00:36;99645.74;;;29.06;27.55
51053;BME280;37093;37.716;-122.060;2023-08-08T01:03:05;99647.45;;;28.55;28.47
51053;BME280;37093;37.716;-122.060;2023-08-08T01:05:38;99645.08;;;29.23;27.80
51053;BME280;37093;37.716;-122.060;2023-08-08T01:08:11;99645.16;;;29.65;27.31
51053;BME280;37093;37.716;-122.060;2023-08-08T01:10:44;99650.78;;;29.09;27.85
51053;BME280;37093;37.716;-122.060;2023-08-08T01:13:16;99651.17;;;29.06;27.83
51053;BME280;37093;37.716;-122.060;2023-08-08T01:15:47;99650.61;;;28.30;28.85
51053;BME280;37093;37.716;-122.060;2023-08-08T01:18:18;99654.48;;;27.78;30.07
51053;BME280;37093;37.716;-122.060;2023-08-08T01:20:47;99654.06;;;28.59;29.42
51053;BME280;37093;37.716;-122.060;2023-08-08T01:23:26;99659.21;;;27.66;30.37
51053;BME280;37093;37.716;-122.060;2023-08-08T01:25:59;99658.79;;;28.33;30.03
51053;BME280;37093;37.716;-122.060;2023-08-08T01:28:27;99658.10;;;27.97;30.03
51053;BME280;37093;37.716;-122.060;2023-08-08T01:30:56;99660.11;;;27.68;30.49
51053;BME280;37093;37.716;-122.060;2023-08-08T01:33:25;99658.96;;;28.36;29.48
51053;BME280;37093;37.716;-122.060;2023-08-08T01:35:58;99663.77;;;27.43;29.65
51053;BME280;37093;37.716;-122.060;2023-08-08T01:38:32;99663.17;;;28.17;29.82
51053;BME280;37093;37.716;-122.060;2023-08-08T01:41:02;99663.87;;;26.73;31.59
51053;BME280;37093;37.716;-122.060;2023-08-08T01:43:33;99665.07;;;26.21;32.05
51053;BME280;37093;37.716;-122.060;2023-08-08T01:46:05;99664.09;;;26.83;31.63
51053;BME280;37093;37.716;-122.060;2023-08-08T01:48:36;99668.95;;;27.23;30.77
51053;BME280;37093;37.716;-122.060;2023-08-08T01:51:04;99671.56;;;27.67;29.53
51053;BME280;37093;37.716;-122.060;2023-08-08T01:53:33;99673.59;;;27.25;30.41
51053;BME280;37093;37.716;-122.060;2023-08-08T01:56:02;99678.86;;;28.08;29.02
51053;BME280;37093;37.716;-122.060;2023-08-08T01:58:31;99682.65;;;28.18;29.62
51053;BME280;37093;37.716;-122.060;2023-08-08T02:01:02;99677.85;;;27.94;29.69
51053;BME280;37093;37.716;-122.060;2023-08-08T02:03:30;99673.69;;;27.34;30.82
51053;BME280;37093;37.716;-122.060;2023-08-08T02:05:59;99677.60;;;26.88;31.35
51053;BME280;37093;37.716;-122.060;2023-08-08T02:08:27;99682.80;;;25.97;32.64
51053;BME280;37093;37.716;-122.060;2023-08-08T02:10:57;99687.23;;;26.08;32.50
51053;BME280;37093;37.716;-122.060;2023-08-08T02:13:26;99689.63;;;25.88;33.20
51053;BME280;37093;37.716;-122.060;2023-08-08T02:15:55;99685.25;;;25.95;32.94
51053;BME280;37093;37.716;-122.060;2023-08-08T02:18:24;99686.67;;;25.77;33.49
51053;BME280;37093;37.716;-122.060;2023-08-08T02:20:52;99688.85;;;25.63;33.49
51053;BME280;37093;37.716;-122.060;2023-08-08T02:23:21;99687.73;;;25.76;33.89
51053;BME280;37093;37.716;-122.060;2023-08-08T02:25:49;99689.53;;;25.40;34.06
51053;BME280;37093;37.716;-122.060;2023-08-08T02:28:18;99689.02;;;25.14;34.67
51053;BME280;37093;37.716;-122.060;2023-08-08T02:30:47;99687.58;;;25.37;34.15
51053;BME280;37093;37.716;-122.060;2023-08-08T02:33:17;99690.42;;;25.78;33.40
51053;BME280;37093;37.716;-122.060;2023-08-08T02:35:46;99688.52;;;25.61;33.68
51053;BME280;37093;37.716;-122.060;2023-08-08T02:38:15;99691.61;;;25.25;33.45
51053;BME280;37093;37.716;-122.060;2023-08-08T02:40:43;99692.55;;;25.87;33.20
51053;BME280;37093;37.716;-122.060;2023-08-08T02:43:11;99688.66;;;25.29;33.76
51053;BME280;37093;37.716;-122.060;2023-08-08T02:45:45;99692.14;;;25.01;34.13
51053;BME280;37093;37.716;-122.060;2023-08-08T02:48:13;99692.25;;;25.44;32.93
51053;BME280;37093;37.716;-122.060;2023-08-08T02:50:45;99687.52;;;25.83;32.79
51053;BME280;37093;37.716;-122.060;2023-08-08T02:53:13;99689.15;;;25.94;32.86
51053;BME280;37093;37.716;-122.060;2023-08-08T02:55:42;99688.79;;;25.92;32.89
51053;BME280;37093;37.716;-122.060;2023-08-08T02:58:10;99687.16;;;25.84;33.00
51053;BME280;37093;37.716;-122.060;2023-08-08T03:00:39;99686.53;;;25.43;33.38
51053;BME280;37093;37.716;-122.060;2023-08-08T03:03:10;99689.42;;;26.26;32.22
51053;BME280;37093;37.716;-122.060;2023-08-08T03:05:41;99687.03;;;25.80;33.09
51053;BME280;37093;37.716;-122.060;2023-08-08T03:08:09;99688.91;;;26.06;32.74
51053;BME280;37093;37.716;-122.060;2023-08-08T03:10:38;99688.14;;;25.73;33.37
51053;BME280;37093;37.716;-122.060;2023-08-08T03:13:08;99691.97;;;25.90;33.05
51053;BME280;37093;37.716;-122.060;2023-08-08T03:15:38;99687.78;;;25.48;33.19
51053;BME280;37093;37.716;-122.060;2023-08-08T03:18:06;99690.21;;;24.99;34.34
51053;BME280;37093;37.716;-122.060;2023-08-08T03:20:35;99689.18;;;25.44;33.86
51053;BME280;37093;37.716;-122.060;2023-08-08T03:23:06;99691.50;;;25.30;34.01
51053;BME280;37093;37.716;-122.060;2023-08-08T03:25:35;99694.71;;;25.24;34.48
51053;BME280;37093;37.716;-122.060;2023-08-08T03:28:03;99695.98;;;25.00;34.85
51053;BME280;37093;37.716;-122.060;2023-08-08T03:30:31;99697.38;;;24.77;35.35
51053;BME280;37093;37.716;-122.060;2023-08-08T03:33:00;99701.71;;;24.08;35.99
51053;BME280;37093;37.716;-122.060;2023-08-08T03:35:29;99702.20;;;25.27;34.80
51053;BME280;37093;37.716;-122.060;2023-08-08T03:37:57;99705.01;;;24.77;35.15
51053;BME280;37093;37.716;-122.060;2023-08-08T03:40:26;99709.99;;;24.83;35.67
51053;BME280;37093;37.716;-122.060;2023-08-08T03:42:57;99712.20;;;24.67;35.91
51053;BME280;37093;37.716;-122.060;2023-08-08T03:45:25;99715.43;;;24.26;36.00
51053;BME280;37093;37.716;-122.060;2023-08-08T03:47:54;99716.13;;;24.10;36.91
51053;BME280;37093;37.716;-122.060;2023-08-08T03:50:23;99715.48;;;24.15;36.81
51053;BME280;37093;37.716;-122.060;2023-08-08T03:52:53;99720.86;;;23.63;38.03
51053;BME280;37093;37.716;-122.060;2023-08-08T03:55:22;99720.83;;;23.29;37.92
51053;BME280;37093;37.716;-122.060;2023-08-08T03:57:51;99724.92;;;24.18;37.06
51053;BME280;37093;37.716;-122.060;2023-08-08T04:00:21;99724.72;;;24.05;36.71
51053;BME280;37093;37.716;-122.060;2023-08-08T04:02:49;99726.56;;;24.64;36.24
51053;BME280;37093;37.716;-122.060;2023-08-08T04:05:20;99728.99;;;23.59;38.49
51053;BME280;37093;37.716;-122.060;2023-08-08T04:07:49;99728.47;;;23.63;38.63
51053;BME280;37093;37.716;-122.060;2023-08-08T04:10:17;99735.42;;;23.15;39.01
51053;BME280;37093;37.716;-122.060;2023-08-08T04:12:46;99735.97;;;22.62;40.13
51053;BME280;37093;37.716;-122.060;2023-08-08T04:15:14;99737.13;;;22.38;40.69
51053;BME280;37093;37.716;-122.060;2023-08-08T04:17:42;99745.43;;;22.48;41.33
51053;BME280;37093;37.716;-122.060;2023-08-08T04:20:11;99750.73;;;21.50;43.09
51053;BME280;37093;37.716;-122.060;2023-08-08T04:22:39;99747.70;;;21.92;42.38
51053;BME280;37093;37.716;-122.060;2023-08-08T04:25:08;99749.35;;;21.42;42.91
51053;BME280;37093;37.716;-122.060;2023-08-08T04:27:37;99751.59;;;22.07;42.05
51053;BME280;37093;37.716;-122.060;2023-08-08T04:30:07;99752.53;;;21.49;43.48
51053;BME280;37093;37.716;-122.060;2023-08-08T04:32:34;99754.30;;;21.25;43.69
51053;BME280;37093;37.716;-122.060;2023-08-08T04:35:03;99760.12;;;21.14;44.42
51053;BME280;37093;37.716;-122.060;2023-08-08T04:37:31;99758.61;;;20.42;45.65
51053;BME280;37093;37.716;-122.060;2023-08-08T04:40:00;99762.22;;;21.33;44.09
51053;BME280;37093;37.716;-122.060;2023-08-08T04:42:28;99764.83;;;21.32;44.67
51053;BME280;37093;37.716;-122.060;2023-08-08T04:44:56;99765.64;;;21.11;44.36
51053;BME280;37093;37.716;-122.060;2023-08-08T04:47:25;99763.34;;;21.25;44.82
51053;BME280;37093;37.716;-122.060;2023-08-08T04:49:53;99768.32;;;21.10;44.66
51053;BME280;37093;37.716;-122.060;2023-08-08T04:52:22;99769.13;;;21.13;44.66
51053;BME280;37093;37.716;-122.060;2023-08-08T04:54:51;99774.78;;;21.49;43.75
51053;BME280;37093;37.716;-122.060;2023-08-08T04:57:19;99771.71;;;21.94;43.13
51053;BME280;37093;37.716;-122.060;2023-08-08T04:59:47;99773.26;;;21.06;44.72
51053;BME280;37093;37.716;-122.060;2023-08-08T05:02:16;99773.88;;;21.36;44.37
51053;BME280;37093;37.716;-122.060;2023-08-08T05:04:45;99771.44;;;21.10;44.57
51053;BME280;37093;37.716;-122.060;2023-08-08T05:07:13;99771.16;;;20.82;45.74
51053;BME280;37093;37.716;-122.060;2023-08-08T05:09:42;99770.68;;;20.82;45.79
51053;BME280;37093;37.716;-122.060;2023-08-08T05:12:10;99769.78;;;20.40;46.99
51053;BME280;37093;37.716;-122.060;2023-08-08T05:14:39;99777.05;;;19.99;48.28
51053;BME280;37093;37.716;-122.060;2023-08-08T05:17:07;99774.04;;;19.73;47.91
51053;BME280;37093;37.716;-122.060;2023-08-08T05:19:36;99772.88;;;19.57;48.50
51053;BME280;37093;37.716;-122.060;2023-08-08T05:22:05;99773.44;;;20.22;48.01
51053;BME280;37093;37.716;-122.060;2023-08-08T05:24:34;99776.68;;;19.73;48.99
51053;BME280;37093;37.716;-122.060;2023-08-08T05:27:02;99774.89;;;19.75;48.16
51053;BME280;37093;37.716;-122.060;2023-08-08T05:29:31;99778.58;;;19.60;48.89
51053;BME280;37093;37.716;-122.060;2023-08-08T05:31:59;99771.77;;;20.47;47.63
51053;BME280;37093;37.716;-122.060;2023-08-08T05:34:28;99774.96;;;19.62;49.10
51053;BME280;37093;37.716;-122.060;2023-08-08T05:36:56;99772.98;;;19.85;47.45
51053;BME280;37093;37.716;-122.060;2023-08-08T05:39:25;99774.33;;;20.57;46.15
51053;BME280;37093;37.716;-122.060;2023-08-08T05:41:53;99772.35;;;20.42;46.22
51053;BME280;37093;37.716;-122.060;2023-08-08T05:44:21;99768.92;;;20.56;47.36
51053;BME280;37093;37.716;-122.060;2023-08-08T05:46:50;99767.89;;;20.19;47.81
51053;BME280;37093;37.716;-122.060;2023-08-08T05:49:19;99770.14;;;19.60;48.76
51053;BME280;37093;37.716;-122.060;2023-08-08T05:51:47;99767.63;;;19.71;48.50
51053;BME280;37093;37.716;-122.060;2023-08-08T05:54:16;99768.34;;;20.01;48.09
51053;BME280;37093;37.716;-122.060;2023-08-08T05:56:44;99771.13;;;19.97;48.32
51053;BME280;37093;37.716;-122.060;2023-08-08T05:59:13;99766.21;;;20.10;46.69
51053;BME280;37093;37.716;-122.060;2023-08-08T06:01:41;99765.46;;;20.35;46.12
51053;BME280;37093;37.716;-122.060;2023-08-08T06:04:10;99766.00;;;20.61;45.66
51053;BME280;37093;37.716;-122.060;2023-08-08T06:06:38;99762.52;;;20.50;45.94
51053;BME280;37093;37.716;-122.060;2023-08-08T06:09:07;99759.18;;;20.32;45.56
51053;BME280;37093;37.716;-122.060;2023-08-08T06:11:35;99758.80;;;20.51;46.26
51053;BME280;37093;37.716;-122.060;2023-08-08T06:14:04;99755.28;;;20.59;45.45
51053;BME280;37093;37.716;-122.060;2023-08-08T06:16:32;99750.86;;;20.42;45.22
51053;BME280;37093;37.716;-122.060;2023-08-08T06:19:01;99752.20;;;20.76;44.97
51053;BME280;37093;37.716;-122.060;2023-08-08T06:21:30;99754.72;;;20.35;45.17
51053;BME280;37093;37.716;-122.060;2023-08-08T06:23:58;99753.41;;;20.35;46.01
51053;BME280;37093;37.716;-122.060;2023-08-08T06:26:27;99753.02;;;20.45;45.81
51053;BME280;37093;37.716;-122.060;2023-08-08T06:28:55;99755.01;;;20.48;45.88
51053;BME280;37093;37.716;-122.060;2023-08-08T06:31:25;99754.67;;;20.54;45.50
51053;BME280;37093;37.716;-122.060;2023-08-08T06:33:53;99753.15;;;20.46;45.54
51053;BME280;37093;37.716;-122.060;2023-08-08T06:36:22;99749.02;;;20.39;45.41
51053;BME280;37093;37.716;-122.060;2023-08-08T06:38:50;99751.99;;;20.57;44.92
51053;BME280;37093;37.716;-122.060;2023-08-08T06:41:19;99748.73;;;20.75;44.39
51053;BME280;37093;37.716;-122.060;2023-08-08T06:43:47;99756.80;;;20.33;45.08
51053;BME280;37093;37.716;-122.060;2023-08-08T06:46:16;99756.16;;;20.16;45.35
51053;BME280;37093;37.716;-122.060;2023-08-08T06:48:44;99755.57;;;19.93;45.70
51053;BME280;37093;37.716;-122.060;2023-08-08T06:51:13;99754.34;;;19.84;45.49
51053;BME280;37093;37.716;-122.060;2023-08-08T06:53:42;99757.05;;;19.71;46.52
51053;BME280;37093;37.716;-122.060;2023-08-08T06:56:10;99758.43;;;19.87;47.59
51053;BME280;37093;37.716;-122.060;2023-08-08T06:58:39;99759.05;;;19.29;48.37
51053;BME280;37093;37.716;-122.060;2023-08-08T07:01:13;99759.76;;;18.96;48.02
51053;BME280;37093;37.716;-122.060;2023-08-08T07:03:42;99759.47;;;18.71;47.21
51053;BME280;37093;37.716;-122.060;2023-08-08T07:06:11;99767.33;;;19.68;46.60
51053;BME280;37093;37.716;-122.060;2023-08-08T07:08:39;99769.25;;;20.58;46.02
51053;BME280;37093;37.716;-122.060;2023-08-08T07:11:08;99767.74;;;20.32;46.60
51053;BME280;37093;37.716;-122.060;2023-08-08T07:13:36;99772.09;;;20.12;46.69
51053;BME280;37093;37.716;-122.060;2023-08-08T07:16:05;99774.50;;;19.99;47.63
51053;BME280;37093;37.716;-122.060;2023-08-08T07:18:33;99776.20;;;19.79;48.10
51053;BME280;37093;37.716;-122.060;2023-08-08T07:21:02;99777.76;;;19.87;47.26
51053;BME280;37093;37.716;-122.060;2023-08-08T07:23:30;99781.37;;;19.82;47.62
51053;BME280;37093;37.716;-122.060;2023-08-08T07:25:59;99781.56;;;19.81;48.13
51053;BME280;37093;37.716;-122.060;2023-08-08T07:28:28;99778.58;;;19.98;47.70
51053;BME280;37093;37.716;-122.060;2023-08-08T07:30:56;99779.24;;;19.94;46.80
51053;BME280;37093;37.716;-122.060;2023-08-08T07:33:25;99782.43;;;19.96;47.25
51053;BME280;37093;37.716;-122.060;2023-08-08T07:35:53;99782.84;;;20.04;46.74
51053;BME280;37093;37.716;-122.060;2023-08-08T07:38:22;99786.08;;;19.87;46.77
51053;BME280;37093;37.716;-122.060;2023-08-08T07:40:50;99789.83;;;19.79;47.04
51053;BME280;37093;37.716;-122.060;2023-08-08T07:43:19;99791.20;;;19.87;46.66
51053;BME280;37093;37.716;-122.060;2023-08-08T07:45:47;99792.86;;;19.88;46.62
51053;BME280;37093;37.716;-122.060;2023-08-08T07:48:16;99791.95;;;19.77;47.50
51053;BME280;37093;37.716;-122.060;2023-08-08T07:50:44;99791.03;;;19.88;46.75
51053;BME280;37093;37.716;-122.060;2023-08-08T07:53:13;99787.72;;;20.27;47.04
51053;BME280;37093;37.716;-122.060;2023-08-08T07:55:42;99783.72;;;19.80;46.61
51053;BME280;37093;37.716;-122.060;2023-08-08T07:58:10;99785.62;;;19.89;47.08
51053;BME280;37093;37.716;-122.060;2023-08-08T08:00:39;99785.36;;;20.25;47.00
51053;BME280;37093;37.716;-122.060;2023-08-08T08:03:07;99785.49;;;19.88;46.27
51053;BME280;37093;37.716;-122.060;2023-08-08T08:05:36;99783.73;;;19.81;47.75
51053;BME280;37093;37.716;-122.060;2023-08-08T08:08:05;99781.18;;;19.84;47.00
51053;BME280;37093;37.716;-122.060;2023-08-08T08:10:33;99780.21;;;19.78;47.98
51053;BME280;37093;37.716;-122.060;2023-08-08T08:13:01;99779.25;;;19.27;48.07
51053;BME280;37093;37.716;-122.060;2023-08-08T08:15:30;99780.76;;;19.48;47.66
51053;BME280;37093;37.716;-122.060;2023-08-08T08:17:58;99781.12;;;19.86;46.97
51053;BME280;37093;37.716;-122.060;2023-08-08T08:20:27;99780.90;;;19.84;47.42
51053;BME280;37093;37.716;-122.060;2023-08-08T08:22:56;99783.65;;;19.71;47.12
51053;BME280;37093;37.716;-122.060;2023-08-08T08:25:24;99783.51;;;19.67;47.59
51053;BME280;37093;37.716;-122.060;2023-08-08T08:27:53;99785.95;;;19.67;47.98
51053;BME280;37093;37.716;-122.060;2023-08-08T08:30:22;99785.18;;;19.82;48.62
51053;BME280;37093;37.716;-122.060;2023-08-08T08:32:50;99782.96;;;19.54;48.54
51053;BME280;37093;37.716;-122.060;2023-08-08T08:35:18;99783.54;;;19.48;48.81
51053;BME280;37093;37.716;-122.060;2023-08-08T08:37:47;99780.87;;;19.82;49.67
51053;BME280;37093;37.716;-122.060;2023-08-08T08:40:15;99778.21;;;19.64;50.04
51053;BME280;37093;37.716;-122.060;2023-08-08T08:42:45;99779.98;;;19.40;49.97
51053;BME280;37093;37.716;-122.060;2023-08-08T08:45:15;99779.95;;;18.74;52.29
51053;BME280;37093;37.716;-122.060;2023-08-08T08:47:47;99780.47;;;19.14;52.55
51053;BME280;37093;37.716;-122.060;2023-08-08T08:50:16;99782.60;;;18.28;54.92
51053;BME280;37093;37.716;-122.060;2023-08-08T08:52:45;99777.08;;;18.29;54.78
51053;BME280;37093;37.716;-122.060;2023-08-08T08:55:14;99777.65;;;18.42;55.53
51053;BME280;37093;37.716;-122.060;2023-08-08T08:57:43;99771.54;;;18.23;54.74
51053;BME280;37093;37.716;-122.060;2023-08-08T09:00:12;99773.20;;;18.79;54.10
51053;BME280;37093;37.716;-122.060;2023-08-08T09:02:41;99765.22;;;18.76;55.00
51053;BME280;37093;37.716;-122.060;2023-08-08T09:05:12;99767.16;;;18.12;56.41
51053;BME280;37093;37.716;-122.060;2023-08-08T09:07:40;99764.20;;;18.81;55.41
51053;BME280;37093;37.716;-122.060;2023-08-08T09:10:09;99766.93;;;18.50;55.75
51053;BME280;37093;37.716;-122.060;2023-08-08T09:12:38;99763.20;;;18.78;55.91
51053;BME280;37093;37.716;-122.060;2023-08-08T09:15:07;99768.00;;;19.00;56.49
51053;BME280;37093;37.716;-122.060;2023-08-08T09:17:36;99762.52;;;18.85;56.82
51053;BME280;37093;37.716;-122.060;2023-08-08T09:20:05;99761.50;;;18.89;55.11
51053;BME280;37093;37.716;-122.060;2023-08-08T09:22:33;99761.25;;;19.09;55.62
51053;BME280;37093;37.716;-122.060;2023-08-08T09:25:03;99763.02;;;19.29;53.24
51053;BME280;37093;37.716;-122.060;2023-08-08T09:27:31;99767.20;;;19.07;54.70
51053;BME280;37093;37.716;-122.060;2023-08-08T09:29:59;99765.25;;;18.73;54.77
51053;BME280;37093;37.716;-122.060;2023-08-08T09:32:30;99761.97;;;19.08;53.50
51053;BME280;37093;37.716;-122.060;2023-08-08T09:34:58;99762.97;;;19.03;54.15
51053;BME280;37093;37.716;-122.060;2023-08-08T09:37:27;99761.27;;;19.34;53.28
51053;BME280;37093;37.716;-122.060;2023-08-08T09:39:58;99759.49;;;19.35;53.94
51053;BME280;37093;37.716;-122.060;2023-08-08T09:42:28;99756.35;;;18.79;55.71
51053;BME280;37093;37.716;-122.060;2023-08-08T09:44:57;99757.57;;;18.76;55.27
51053;BME280;37093;37.716;-122.060;2023-08-08T09:47:26;99757.68;;;18.78;55.23
51053;BME280;37093;37.716;-122.060;2023-08-08T10:06:34;99771.48;;;17.69;62.81
51053;BME280;37093;37.716;-122.060;2023-08-08T10:09:02;99762.73;;;16.59;59.85
51053;BME280;37093;37.716;-122.060;2023-08-08T10:11:31;99764.01;;;17.53;55.14
51053;BME280;37093;37.716;-122.060;2023-08-08T10:14:02;99763.72;;;19.28;53.76
51053;BME280;37093;37.716;-122.060;2023-08-08T10:16:33;99760.80;;;19.38;53.68
51053;BME280;37093;37.716;-122.060;2023-08-08T10:19:02;99761.36;;;19.34;53.36
51053;BME280;37093;37.716;-122.060;2023-08-08T10:23:42;99758.87;;;19.89;53.50
51053;BME280;37093;37.716;-122.060;2023-08-08T10:26:19;99758.02;;;19.31;52.08
51053;BME280;37093;37.716;-122.060;2023-08-08T10:28:55;99756.81;;;19.62;52.15
51053;BME280;37093;37.716;-122.060;2023-08-08T10:31:24;99759.08;;;19.67;51.89
51053;BME280;37093;37.716;-122.060;2023-08-08T10:34:02;99760.43;;;19.18;53.25
51053;BME280;37093;37.716;-122.060;2023-08-08T10:36:50;99761.32;;;19.36;53.23
51053;BME280;37093;37.716;-122.060;2023-08-08T10:39:20;99757.98;;;18.86;55.24
51053;BME280;37093;37.716;-122.060;2023-08-08T10:41:50;99757.42;;;19.11;54.69
51053;BME280;37093;37.716;-122.060;2023-08-08T10:44:23;99756.42;;;18.81;55.15
51053;BME280;37093;37.716;-122.060;2023-08-08T10:46:52;99752.17;;;18.57;56.04
51053;BME280;37093;37.716;-122.060;2023-08-08T10:49:21;99752.29;;;18.88;55.04
51053;BME280;37093;37.716;-122.060;2023-08-08T10:51:51;99752.68;;;18.71;55.52
51053;BME280;37093;37.716;-122.060;2023-08-08T10:54:21;99753.92;;;18.75;55.50
51053;BME280;37093;37.716;-122.060;2023-08-08T10:56:52;99747.78;;;19.32;53.88
51053;BME280;37093;37.716;-122.060;2023-08-08T10:59:22;99752.61;;;18.61;55.99
51053;BME280;37093;37.716;-122.060;2023-08-08T11:01:52;99749.85;;;19.07;54.59
51053;BME280;37093;37.716;-122.060;2023-08-08T11:04:23;99749.60;;;19.48;53.85
51053;BME280;37093;37.716;-122.060;2023-08-08T11:06:54;99749.21;;;19.26;53.31
51053;BME280;37093;37.716;-122.060;2023-08-08T11:09:23;99748.03;;;19.24;53.67
51053;BME280;37093;37.716;-122.060;2023-08-08T11:11:51;99750.83;;;18.35;56.70
51053;BME280;37093;37.716;-122.060;2023-08-08T11:14:21;99744.65;;;19.38;53.73
51053;BME280;37093;37.716;-122.060;2023-08-08T11:16:51;99739.86;;;18.84;54.51
51053;BME280;37093;37.716;-122.060;2023-08-08T11:19:21;99740.09;;;19.36;53.72
51053;BME280;37093;37.716;-122.060;2023-08-08T11:21:50;99744.67;;;19.46;53.09
51053;BME280;37093;37.716;-122.060;2023-08-08T11:24:18;99744.05;;;19.20;54.31
51053;BME280;37093;37.716;-122.060;2023-08-08T11:26:46;99744.20;;;19.24;54.69
51053;BME280;37093;37.716;-122.060;2023-08-08T11:29:15;99743.44;;;19.38;53.53
51053;BME280;37093;37.716;-122.060;2023-08-08T11:31:43;99744.15;;;19.05;53.64
51053;BME280;37093;37.716;-122.060;2023-08-08T11:34:16;99740.20;;;18.83;55.88
51053;BME280;37093;37.716;-122.060;2023-08-08T11:36:45;99739.69;;;19.18;55.25
51053;BME280;37093;37.716;-122.060;2023-08-08T11:39:14;99737.41;;;19.22;54.20
51053;BME280;37093;37.716;-122.060;2023-08-08T11:41:43;99735.27;;;19.51;54.16
51053;BME280;37093;37.716;-122.060;2023-08-08T11:44:11;99732.55;;;19.00;53.93
51053;BME280;37093;37.716;-122.060;2023-08-08T11:46:44;99730.23;;;18.72;54.56
51053;BME280;37093;37.716;-122.060;2023-08-08T11:49:16;99729.58;;;19.52;52.92
51053;BME280;37093;37.716;-122.060;2023-08-08T11:51:45;99731.54;;;19.54;52.94
51053;BME280;37093;37.716;-122.060;2023-08-08T11:54:14;99733.57;;;19.23;53.59
51053;BME280;37093;37.716;-122.060;2023-08-08T11:56:42;99735.90;;;19.25;54.21
51053;BME280;37093;37.716;-122.060;2023-08-08T11:59:11;99740.86;;;19.11;52.96
51053;BME280;37093;37.716;-122.060;2023-08-08T12:01:40;99745.38;;;19.53;52.21
51053;BME280;37093;37.716;-122.060;2023-08-08T12:04:09;99748.30;;;18.21;55.06
51053;BME280;37093;37.716;-122.060;2023-08-08T12:06:38;99751.98;;;19.29;52.01
51053;BME280;37093;37.716;-122.060;2023-08-08T12:09:07;99753.16;;;19.30;52.00
51053;BME280;37093;37.716;-122.060;2023-08-08T12:11:36;99746.42;;;18.87;54.13
51053;BME280;37093;37.716;-122.060;2023-08-08T12:14:04;99745.94;;;18.16;55.64
51053;BME280;37093;37.716;-122.060;2023-08-08T12:16:36;99743.52;;;18.58;54.78
51053;BME280;37093;37.716;-122.060;2023-08-08T12:19:08;99746.72;;;18.72;54.41
51053;BME280;37093;37.716;-122.060;2023-08-08T12:21:36;99751.09;;;19.36;52.21
51053;BME280;37093;37.716;-122.060;2023-08-08T12:24:05;99757.18;;;19.51;51.85
51053;BME280;37093;37.716;-122.060;2023-08-08T12:26:33;99762.91;;;18.08;55.90
51053;BME280;37093;37.716;-122.060;2023-08-08T12:29:02;99762.82;;;18.66;55.11
51053;BME280;37093;37.716;-122.060;2023-08-08T12:31:30;99762.15;;;18.75;56.01
51053;BME280;37093;37.716;-122.060;2023-08-08T12:33:59;99760.78;;;18.07;56.26
51053;BME280;37093;37.716;-122.060;2023-08-08T12:36:28;99764.11;;;18.42;57.00
51053;BME280;37093;37.716;-122.060;2023-08-08T12:38:56;99762.07;;;18.23;56.95
51053;BME280;37093;37.716;-122.060;2023-08-08T12:41:25;99760.51;;;18.44;57.26
51053;BME280;37093;37.716;-122.060;2023-08-08T12:43:54;99761.25;;;18.32;55.73
51053;BME280;37093;37.716;-122.060;2023-08-08T12:46:22;99765.54;;;18.88;55.44
51053;BME280;37093;37.716;-122.060;2023-08-08T12:48:51;99767.69;;;18.61;55.20
51053;BME280;37093;37.716;-122.060;2023-08-08T12:51:19;99766.78;;;18.46;55.37
51053;BME280;37093;37.716;-122.060;2023-08-08T12:53:48;99765.45;;;18.94;53.48
51053;BME280;37093;37.716;-122.060;2023-08-08T12:56:16;99771.92;;;19.22;53.45
51053;BME280;37093;37.716;-122.060;2023-08-08T12:58:45;99773.69;;;18.91;55.62